createdAt,value
2019-01-21T00:01:16.755Z,32.60
2019-01-21T00:03:46.398Z,32.50
2019-01-21T00:06:16.119Z,32.60
2019-01-21T00:08:45.759Z,32.50
2019-01-21T00:11:15.424Z,32.60
2019-01-21T00:13:45.096Z,32.80
2019-01-21T00:16:15.003Z,32.80
2019-01-21T00:18:44.776Z,32.60
2019-01-21T00:21:14.502Z,32.80
2019-01-21T00:23:44.215Z,32.80
2019-01-21T00:26:13.888Z,32.80
2019-01-21T00:28:43.672Z,32.60
2019-01-21T00:31:13.317Z,32.50
2019-01-21T00:33:43.056Z,32.80
2019-01-21T00:36:12.730Z,32.90
2019-01-21T00:38:42.508Z,33.10
2019-01-21T00:41:12.150Z,33.10
2019-01-21T00:43:41.890Z,33.20
2019-01-21T00:46:11.639Z,33.20
2019-01-21T00:48:41.453Z,33.20
2019-01-21T00:51:11.271Z,33.20
2019-01-21T00:53:40.916Z,33.40
2019-01-21T00:56:10.854Z,33.50
2019-01-21T00:58:43.670Z,33.50
2019-01-21T01:01:13.417Z,33.20
2019-01-21T01:03:44.712Z,33.10
2019-01-21T01:06:14.430Z,33.20
2019-01-21T01:08:44.296Z,33.10
2019-01-21T01:11:13.991Z,32.90
2019-01-21T01:13:43.698Z,33.10
2019-01-21T01:16:13.431Z,33.20
2019-01-21T01:18:43.468Z,33.10
2019-01-21T01:21:13.111Z,33.20
2019-01-21T01:23:43.186Z,33.20
2019-01-21T01:26:12.935Z,33.20
2019-01-21T01:28:42.565Z,33.10
2019-01-21T01:31:12.239Z,32.90
2019-01-21T01:33:41.838Z,32.90
2019-01-21T01:36:11.617Z,32.80
2019-01-21T01:38:41.306Z,32.90
2019-01-21T01:41:11.041Z,32.80
2019-01-21T01:43:41.071Z,32.60
2019-01-21T01:46:10.818Z,32.90
2019-01-21T01:48:40.609Z,33.10
2019-01-21T01:51:10.321Z,33.20
2019-01-21T01:53:40.094Z,33.40
2019-01-21T01:56:09.801Z,33.20
2019-01-21T01:58:39.547Z,33.10
2019-01-21T02:01:09.274Z,33.10
2019-01-21T02:03:39.267Z,33.40
2019-01-21T02:06:09.050Z,33.50
2019-01-21T02:08:38.724Z,33.50
2019-01-21T02:11:08.479Z,33.50
2019-01-21T02:13:38.380Z,33.50
2019-01-21T02:16:08.135Z,33.50
2019-01-21T02:18:37.972Z,33.40
2019-01-21T02:21:07.739Z,33.70
2019-01-21T02:23:37.617Z,33.80
2019-01-21T02:26:09.879Z,34.10
2019-01-21T02:28:45.966Z,34.10
2019-01-21T02:31:30.449Z,34.00
2019-01-21T02:34:20.979Z,34.00
2019-01-21T02:37:05.540Z,33.80
2019-01-21T02:40:04.205Z,34.00
2019-01-21T02:42:45.786Z,34.00
2019-01-21T02:45:37.862Z,33.80
2019-01-21T02:48:22.711Z,33.80
2019-01-21T02:50:57.847Z,33.70
2019-01-21T02:53:36.522Z,34.20
2019-01-21T02:56:28.854Z,34.20
2019-01-21T02:59:04.930Z,34.40
2019-01-21T03:02:09.653Z,34.40
2019-01-21T03:04:54.253Z,34.20
2019-01-21T03:07:41.742Z,34.20
2019-01-21T03:10:17.152Z,34.50
2019-01-21T03:13:14.498Z,34.70
2019-01-21T03:15:56.506Z,34.80
2019-01-21T03:18:34.997Z,34.80
2019-01-21T03:21:41.270Z,34.70
2019-01-21T03:24:17.254Z,34.70
2019-01-21T03:27:08.418Z,34.50
2019-01-21T03:29:57.355Z,34.50
2019-01-21T03:32:45.264Z,34.20
2019-01-21T03:35:38.953Z,34.40
2019-01-21T03:38:19.067Z,34.20
2019-01-21T03:40:51.781Z,34.20
2019-01-21T03:43:24.786Z,33.80
2019-01-21T03:46:09.312Z,33.80
2019-01-21T03:48:40.398Z,34.20
2019-01-21T03:51:36.759Z,34.40
2019-01-21T03:54:12.330Z,34.20
2019-01-21T03:56:45.120Z,34.20
2019-01-21T03:59:21.203Z,34.20
2019-01-21T04:02:17.032Z,34.10
2019-01-21T04:05:11.157Z,34.20
2019-01-21T04:07:56.715Z,34.20
2019-01-21T04:10:55.295Z,34.40
2019-01-21T04:13:45.930Z,34.20
2019-01-21T04:16:30.567Z,34.40
2019-01-21T04:19:24.282Z,34.40
2019-01-21T04:22:18.463Z,34.20
2019-01-21T04:24:54.178Z,34.20
2019-01-21T04:27:48.118Z,34.50
2019-01-21T04:30:32.804Z,35.00
2019-01-21T04:33:11.072Z,34.80
2019-01-21T04:35:55.441Z,34.70
2019-01-21T04:39:03.757Z,34.70
2019-01-21T04:41:45.550Z,34.40
2019-01-21T04:44:42.558Z,34.40
2019-01-21T04:47:21.462Z,34.50
2019-01-21T04:50:21.169Z,35.00
2019-01-21T04:53:10.394Z,35.10
2019-01-21T04:56:09.914Z,35.40
2019-01-21T04:58:51.605Z,35.30
2019-01-21T05:01:42.500Z,35.90
2019-01-21T05:04:21.094Z,36.00
2019-01-21T05:07:12.038Z,36.00
2019-01-21T05:10:04.379Z,36.00
2019-01-21T05:12:52.223Z,36.20
2019-01-21T05:15:46.273Z,36.30
2019-01-21T05:18:50.701Z,36.20
2019-01-21T05:21:43.589Z,36.00
2019-01-21T05:24:28.214Z,36.00
2019-01-21T05:27:03.999Z,35.70
2019-01-21T05:29:42.724Z,35.90
2019-01-21T05:32:48.514Z,36.00
2019-01-21T05:35:36.110Z,35.90
2019-01-21T05:38:08.835Z,35.70
2019-01-21T05:40:53.424Z,35.70
2019-01-21T05:43:37.847Z,35.70
2019-01-21T05:46:41.862Z,35.60
2019-01-21T05:49:35.801Z,35.40
2019-01-21T05:52:32.518Z,35.30
2019-01-21T05:55:15.231Z,35.10
2019-01-21T05:57:56.266Z,35.10
2019-01-21T06:00:47.168Z,35.30
2019-01-21T06:03:23.375Z,35.40
2019-01-21T06:06:14.232Z,35.70
2019-01-21T06:09:02.018Z,36.30
2019-01-21T06:11:43.361Z,36.30
2019-01-21T06:14:19.024Z,36.30
2019-01-21T06:16:54.685Z,36.50
2019-01-21T06:19:39.493Z,36.60
2019-01-21T06:22:26.125Z,36.50
2019-01-21T06:25:04.376Z,36.80
2019-01-21T06:27:39.731Z,36.80
2019-01-21T06:30:29.307Z,36.80
2019-01-21T06:33:34.113Z,37.10
2019-01-21T06:36:06.874Z,37.10
2019-01-21T06:38:45.312Z,37.10
2019-01-21T06:41:20.775Z,37.10
2019-01-21T06:44:24.641Z,37.10
2019-01-21T06:47:03.338Z,37.20
2019-01-21T06:49:45.126Z,37.20
2019-01-21T06:52:34.859Z,37.10
2019-01-21T06:55:27.446Z,36.90
2019-01-21T06:58:09.290Z,36.80
2019-01-21T07:00:50.778Z,36.60
2019-01-21T07:03:45.288Z,36.60
2019-01-21T07:06:42.838Z,36.50
2019-01-21T07:09:31.564Z,36.50
2019-01-21T07:12:05.656Z,36.30
2019-01-21T07:14:47.439Z,36.30
2019-01-21T07:17:32.346Z,36.20
2019-01-21T07:20:25.755Z,36.00
2019-01-21T07:23:13.589Z,36.20
2019-01-21T07:25:50.419Z,36.00
2019-01-21T07:28:52.180Z,36.20
2019-01-21T07:31:40.306Z,36.20
2019-01-21T07:34:22.178Z,36.50
2019-01-21T07:37:02.751Z,36.90
2019-01-21T07:40:02.634Z,36.60
2019-01-21T07:42:41.698Z,36.30
2019-01-21T07:45:17.101Z,36.60
2019-01-21T07:48:05.256Z,36.90
2019-01-21T07:50:38.141Z,37.20
2019-01-21T07:53:38.462Z,37.20
2019-01-21T07:56:11.146Z,37.50
2019-01-21T07:59:02.560Z,37.40
2019-01-21T08:01:43.903Z,37.50
2019-01-21T08:04:25.641Z,37.50
2019-01-21T08:07:04.547Z,37.60
2019-01-21T08:10:01.754Z,37.90
2019-01-21T08:12:46.266Z,38.40
2019-01-21T08:15:31.185Z,38.20
2019-01-21T08:18:20.461Z,38.10
2019-01-21T08:21:12.691Z,37.90
2019-01-21T08:23:45.386Z,38.10
2019-01-21T08:26:36.157Z,38.10
2019-01-21T08:29:24.146Z,38.10
2019-01-21T08:31:56.854Z,38.20
2019-01-21T08:34:41.543Z,38.50
2019-01-21T08:37:23.551Z,38.50
2019-01-21T08:40:05.539Z,38.50
2019-01-21T08:42:40.945Z,38.50
2019-01-21T08:45:17.694Z,38.70
2019-01-21T08:47:59.543Z,38.80
2019-01-21T08:50:47.174Z,38.50
2019-01-21T08:53:22.590Z,38.40
2019-01-21T08:55:58.086Z,38.40
2019-01-21T08:58:53.421Z,38.10
2019-01-21T09:01:26.132Z,38.20
2019-01-21T09:03:58.879Z,38.50
2019-01-21T09:06:37.617Z,39.00
2019-01-21T09:09:19.039Z,39.00
2019-01-21T09:12:06.517Z,38.80
2019-01-21T09:15:14.583Z,38.70
2019-01-21T09:18:06.953Z,38.50
2019-01-21T09:20:42.481Z,38.50
2019-01-21T09:23:18.074Z,38.20
2019-01-21T09:25:50.804Z,38.40
2019-01-21T09:28:29.025Z,38.50
2019-01-21T09:31:21.330Z,38.70
2019-01-21T09:34:10.724Z,38.80
2019-01-21T09:36:46.359Z,39.00
2019-01-21T09:39:38.441Z,39.60
2019-01-21T09:42:22.993Z,39.70
2019-01-21T09:45:12.679Z,39.90
2019-01-21T09:47:41.238Z,40.00
2019-01-21T09:50:11.104Z,40.20
2019-01-21T09:52:41.097Z,40.00
2019-01-21T09:55:11.213Z,40.00
2019-01-21T09:57:42.451Z,39.70
2019-01-21T10:00:32.940Z,39.40
2019-01-21T10:03:04.912Z,39.10
2019-01-21T10:05:35.578Z,39.00
2019-01-21T10:08:14.026Z,38.70
2019-01-21T10:10:52.919Z,38.70
2019-01-21T10:13:37.534Z,38.40
2019-01-21T10:16:31.750Z,38.50
2019-01-21T10:19:07.231Z,39.00
2019-01-21T10:22:04.339Z,39.00
2019-01-21T10:24:58.254Z,39.00
2019-01-21T10:27:46.046Z,39.00
2019-01-21T10:30:27.636Z,39.00
2019-01-21T10:33:28.926Z,39.00
2019-01-21T10:36:07.238Z,38.70
2019-01-21T10:38:55.121Z,38.50
2019-01-21T10:41:39.499Z,38.40
2019-01-21T10:44:27.419Z,38.50
2019-01-21T10:47:00.144Z,38.40
2019-01-21T10:49:57.225Z,37.80
2019-01-21T10:52:50.618Z,37.60
2019-01-21T10:55:29.502Z,37.40
2019-01-21T10:58:11.170Z,37.20
2019-01-21T11:00:46.753Z,37.20
2019-01-21T11:03:22.348Z,36.90
2019-01-21T11:05:55.097Z,36.80
2019-01-21T11:08:46.045Z,36.60
2019-01-21T11:11:30.631Z,36.50
2019-01-21T11:14:12.545Z,36.90
2019-01-21T11:16:48.024Z,37.50
2019-01-21T11:19:43.882Z,37.40
2019-01-21T11:22:16.962Z,37.40
2019-01-21T11:25:18.286Z,37.20
2019-01-21T11:28:09.007Z,37.10
2019-01-21T11:30:44.414Z,37.20
2019-01-21T11:33:35.534Z,37.10
2019-01-21T11:36:38.055Z,37.10
2019-01-21T11:39:25.365Z,37.10
2019-01-21T11:41:58.337Z,37.20
2019-01-21T11:45:07.574Z,37.40
2019-01-21T11:47:55.766Z,37.40
2019-01-21T11:51:01.846Z,38.40
2019-01-21T11:53:55.755Z,38.20
2019-01-21T11:56:40.549Z,37.80
2019-01-21T11:59:19.430Z,37.20
2019-01-21T12:02:07.393Z,37.20
2019-01-21T12:04:58.472Z,36.60
2019-01-21T12:07:52.549Z,35.90
2019-01-21T12:10:57.309Z,35.90
2019-01-21T12:13:35.747Z,35.70
2019-01-21T12:16:26.564Z,34.80
2019-01-21T12:19:28.139Z,34.20
2019-01-21T12:22:12.739Z,32.80
2019-01-21T12:24:44.125Z,31.60
2019-01-21T12:27:22.808Z,31.00
2019-01-21T12:29:58.083Z,29.80
2019-01-21T12:32:42.794Z,29.80
2019-01-21T12:35:30.575Z,29.60
2019-01-21T12:38:11.889Z,29.40
2019-01-21T12:40:50.609Z,29.00
2019-01-21T12:43:50.548Z,28.80
2019-01-21T12:46:29.434Z,28.10
2019-01-21T12:49:13.997Z,27.70
2019-01-21T12:51:52.602Z,27.60
2019-01-21T12:54:25.627Z,27.20
2019-01-21T12:57:27.193Z,27.00
2019-01-21T13:00:33.352Z,26.50
2019-01-21T13:03:08.530Z,25.80
2019-01-21T13:05:47.125Z,26.00
2019-01-21T13:08:19.818Z,25.70
2019-01-21T13:10:58.915Z,25.10
2019-01-21T13:13:34.472Z,24.80
2019-01-21T13:16:28.360Z,24.90
2019-01-21T13:19:31.481Z,24.20
2019-01-21T13:22:25.610Z,24.00
2019-01-21T13:25:19.622Z,23.70
2019-01-21T13:28:01.182Z,23.50
2019-01-21T13:30:52.102Z,23.80
2019-01-21T13:33:52.092Z,23.30
2019-01-21T13:36:24.767Z,23.60
2019-01-21T13:39:21.638Z,24.00
2019-01-21T13:41:57.488Z,24.00
2019-01-21T13:44:39.076Z,23.80
2019-01-21T13:47:24.088Z,23.70
2019-01-21T13:49:57.257Z,23.70
2019-01-21T13:52:36.031Z,23.70
2019-01-21T13:55:14.739Z,23.40
2019-01-21T13:57:50.264Z,23.40
2019-01-21T14:00:44.260Z,23.20
2019-01-21T14:03:37.775Z,23.50
2019-01-21T14:06:10.528Z,23.80
2019-01-21T14:09:02.939Z,23.70
2019-01-21T14:11:47.299Z,24.00
2019-01-21T14:14:20.338Z,24.40
2019-01-21T14:17:04.891Z,24.40
2019-01-21T14:19:46.831Z,24.20
2019-01-21T14:22:22.527Z,24.30
2019-01-21T14:25:14.821Z,24.50
2019-01-21T14:28:13.160Z,24.80
2019-01-21T14:31:19.098Z,24.90
2019-01-21T14:34:13.954Z,25.00
2019-01-21T14:36:55.716Z,25.40
2019-01-21T14:39:34.295Z,25.40
2019-01-21T14:42:10.816Z,25.70
2019-01-21T14:44:55.606Z,26.20
2019-01-21T14:47:48.099Z,26.10
2019-01-21T14:50:23.906Z,26.50
2019-01-21T14:53:08.189Z,26.90
2019-01-21T14:56:00.649Z,26.80
2019-01-21T14:58:33.378Z,27.40
2019-01-21T15:01:11.967Z,27.90
2019-01-21T15:04:02.578Z,27.90
2019-01-21T15:06:38.236Z,28.30
2019-01-21T15:09:16.624Z,28.60
2019-01-21T15:11:51.996Z,29.20
2019-01-21T15:14:30.591Z,29.60
2019-01-21T15:17:09.261Z,29.80
2019-01-21T15:19:40.587Z,30.40
2019-01-21T15:22:13.299Z,30.80
2019-01-21T15:24:48.751Z,30.80
2019-01-21T15:27:30.436Z,31.10
2019-01-21T15:30:18.104Z,31.60
2019-01-21T15:33:12.220Z,32.20
2019-01-21T15:35:57.040Z,32.30
2019-01-21T15:38:29.903Z,32.80
2019-01-21T15:41:11.852Z,33.40
2019-01-21T15:44:02.789Z,33.80
2019-01-21T15:46:38.592Z,33.80
2019-01-21T15:49:14.028Z,33.80
2019-01-21T15:52:08.134Z,34.00
2019-01-21T15:54:41.180Z,33.80
2019-01-21T15:57:31.941Z,33.80
2019-01-21T16:00:33.286Z,34.00
2019-01-21T16:03:11.750Z,34.10
2019-01-21T16:05:44.399Z,34.40
2019-01-21T16:08:17.050Z,34.50
2019-01-21T16:10:50.094Z,34.70
2019-01-21T16:13:22.813Z,35.10
2019-01-21T16:16:22.589Z,35.30
2019-01-21T16:19:04.477Z,35.10
2019-01-21T16:21:55.427Z,35.30
2019-01-21T16:24:28.269Z,35.40
2019-01-21T16:27:00.986Z,35.40
2019-01-21T16:29:39.668Z,35.60
2019-01-21T16:32:09.530Z,35.70
2019-01-21T16:34:42.583Z,36.20
2019-01-21T16:37:15.543Z,36.80
2019-01-21T16:40:00.225Z,37.40
2019-01-21T16:42:28.937Z,37.60
2019-01-21T16:44:58.952Z,37.90
2019-01-21T16:47:28.685Z,38.40
2019-01-21T16:49:58.278Z,38.40
2019-01-21T16:52:27.911Z,38.20
2019-01-21T16:54:57.658Z,38.50
2019-01-21T16:57:27.314Z,39.10
2019-01-21T16:59:56.952Z,39.40
2019-01-21T17:02:26.698Z,39.70
2019-01-21T17:04:56.703Z,39.70
2019-01-21T17:07:26.330Z,39.90
2019-01-21T17:09:56.057Z,40.00
2019-01-21T17:12:25.655Z,39.90
2019-01-21T17:14:57.671Z,39.60
2019-01-21T17:17:26.998Z,39.40
2019-01-21T17:19:56.995Z,39.10
2019-01-21T17:22:26.850Z,39.00
2019-01-21T17:24:56.638Z,39.00
2019-01-21T17:27:26.389Z,38.80
2019-01-21T17:29:56.391Z,38.70
2019-01-21T17:32:26.279Z,38.50
2019-01-21T17:34:56.832Z,38.50
2019-01-21T17:37:26.649Z,39.00
2019-01-21T17:39:56.766Z,39.10
2019-01-21T17:42:26.388Z,39.10
2019-01-21T17:44:56.316Z,38.80
2019-01-21T17:47:26.366Z,38.80
2019-01-21T17:49:56.048Z,39.00
2019-01-21T17:52:25.835Z,38.80
2019-01-21T17:54:58.501Z,39.00
2019-01-21T17:57:28.269Z,39.10
2019-01-21T17:59:58.302Z,39.40
2019-01-21T18:02:28.028Z,39.90
2019-01-21T18:04:57.654Z,40.70
2019-01-21T18:07:27.641Z,41.30
2019-01-21T18:09:57.180Z,41.30
2019-01-21T18:12:26.957Z,40.90
2019-01-21T18:14:56.668Z,40.30
2019-01-21T18:17:26.437Z,40.50
2019-01-21T18:19:56.209Z,40.50
2019-01-21T18:22:25.894Z,40.30
2019-01-21T18:24:55.608Z,40.60
2019-01-21T18:27:25.233Z,40.50
2019-01-21T18:29:55.036Z,40.50
2019-01-21T18:32:24.710Z,40.60
2019-01-21T18:34:54.437Z,40.50
2019-01-21T18:37:24.150Z,40.60
2019-01-21T18:39:55.408Z,40.60
2019-01-21T18:42:30.872Z,40.70
2019-01-21T18:45:05.203Z,41.20
2019-01-21T18:47:40.293Z,41.50
2019-01-21T18:50:16.056Z,41.60
2019-01-21T18:52:50.268Z,41.80
2019-01-21T18:55:24.900Z,42.10
2019-01-21T18:57:57.365Z,42.10
2019-01-21T19:00:29.430Z,42.20
2019-01-21T19:02:59.863Z,42.10
2019-01-21T19:05:29.646Z,41.90
2019-01-21T19:07:59.343Z,41.80
2019-01-21T19:10:29.128Z,41.90
2019-01-21T19:12:59.051Z,41.90
2019-01-21T19:15:30.623Z,41.80
2019-01-21T19:18:00.423Z,41.90
2019-01-21T19:20:30.203Z,42.10
2019-01-21T19:23:00.010Z,42.10
2019-01-21T19:25:29.822Z,42.20
2019-01-21T19:27:59.926Z,42.50
2019-01-21T19:30:29.872Z,42.70
2019-01-21T19:32:59.655Z,42.70
2019-01-21T19:35:34.359Z,42.70
2019-01-21T19:38:04.142Z,42.70
2019-01-21T19:40:33.937Z,42.50
2019-01-21T19:43:03.915Z,42.40
2019-01-21T19:45:33.788Z,42.40
2019-01-21T19:48:03.588Z,42.50
2019-01-21T19:50:33.367Z,42.50
2019-01-21T19:53:03.087Z,42.70
2019-01-21T19:55:38.177Z,42.80
2019-01-21T19:58:08.925Z,42.80
2019-01-21T20:00:38.708Z,42.80
2019-01-21T20:03:08.558Z,42.80
2019-01-21T20:05:38.530Z,43.00
2019-01-21T20:08:08.314Z,43.40
2019-01-21T20:10:38.104Z,43.40
2019-01-21T20:13:07.815Z,43.60
2019-01-21T20:15:38.284Z,43.60
2019-01-21T20:18:08.305Z,43.60
2019-01-21T20:20:39.788Z,43.40
2019-01-21T20:23:09.558Z,43.10
2019-01-21T20:25:39.734Z,43.10
2019-01-21T20:28:09.491Z,43.10
2019-01-21T20:30:39.275Z,43.40
2019-01-21T20:33:08.915Z,43.40
2019-01-21T20:35:38.715Z,43.40
2019-01-21T20:38:08.468Z,43.10
2019-01-21T20:40:38.327Z,43.00
2019-01-21T20:43:08.522Z,43.00
2019-01-21T20:45:38.249Z,43.00
2019-01-21T20:48:08.030Z,43.10
2019-01-21T20:50:37.883Z,43.10
2019-01-21T20:53:07.695Z,43.10
2019-01-21T20:55:37.476Z,43.10
2019-01-21T20:58:07.143Z,43.00
2019-01-21T21:00:36.879Z,43.00
2019-01-21T21:03:06.754Z,42.80
2019-01-21T21:05:36.629Z,42.80
2019-01-21T21:08:06.290Z,43.00
2019-01-21T21:10:35.926Z,43.30
2019-01-21T21:13:05.687Z,43.40
2019-01-21T21:15:35.450Z,43.40
2019-01-21T21:18:05.251Z,43.40
2019-01-21T21:20:34.944Z,43.10
2019-01-21T21:23:04.728Z,42.80
2019-01-21T21:25:34.513Z,42.80
2019-01-21T21:28:05.229Z,42.80
2019-01-21T21:30:35.125Z,42.80
2019-01-21T21:33:05.218Z,42.80
2019-01-21T21:35:34.964Z,42.80
2019-01-21T21:38:05.524Z,43.10
2019-01-21T21:40:35.213Z,43.30
2019-01-21T21:43:05.020Z,43.40
2019-01-21T21:45:35.461Z,43.30
2019-01-21T21:48:05.766Z,43.00
2019-01-21T21:50:35.469Z,42.80
2019-01-21T21:53:06.764Z,42.50
2019-01-21T21:55:37.953Z,42.40
2019-01-21T21:58:11.574Z,42.40
2019-01-21T22:00:41.685Z,42.20
2019-01-21T22:03:11.405Z,42.20
2019-01-21T22:05:41.114Z,42.40
2019-01-21T22:08:10.768Z,42.40
2019-01-21T22:10:40.674Z,42.40
2019-01-21T22:13:10.456Z,42.10
2019-01-21T22:15:40.203Z,42.10
2019-01-21T22:18:09.989Z,42.20
2019-01-21T22:20:39.708Z,42.40
2019-01-21T22:23:10.295Z,42.10
2019-01-21T22:25:39.975Z,41.90
2019-01-21T22:28:09.947Z,49.00
2019-01-21T22:30:39.669Z,47.40
2019-01-21T22:33:09.314Z,45.30
2019-01-21T22:35:39.280Z,44.10
2019-01-21T22:38:09.337Z,48.30
2019-01-21T22:40:39.418Z,70.70
2019-01-21T22:43:09.151Z,68.20
2019-01-21T22:45:39.110Z,63.50
2019-01-21T22:48:08.858Z,59.20
2019-01-21T22:50:46.029Z,56.60
2019-01-21T22:53:16.063Z,49.30
2019-01-21T22:55:45.727Z,45.80
2019-01-21T22:58:15.403Z,44.10
2019-01-21T23:00:54.573Z,43.40
2019-01-21T23:03:24.325Z,43.60
2019-01-21T23:05:53.945Z,43.30
2019-01-21T23:08:24.236Z,42.70
2019-01-21T23:10:54.258Z,42.50
2019-01-21T23:13:24.038Z,42.40
2019-01-21T23:15:53.664Z,42.20
2019-01-21T23:18:23.391Z,41.90
2019-01-21T23:20:53.305Z,41.60
2019-01-21T23:23:23.055Z,41.30
2019-01-21T23:25:52.791Z,41.00
2019-01-21T23:28:22.531Z,40.90
2019-01-21T23:30:52.546Z,40.60
2019-01-21T23:33:22.511Z,40.30
2019-01-21T23:35:52.209Z,40.00
2019-01-21T23:38:21.929Z,39.90
2019-01-21T23:40:51.608Z,39.90
2019-01-21T23:43:21.347Z,39.70
2019-01-21T23:45:51.599Z,39.60
2019-01-21T23:48:21.335Z,39.40
2019-01-21T23:50:51.044Z,39.30
2019-01-21T23:53:20.841Z,39.00
2019-01-21T23:55:50.599Z,38.80
2019-01-21T23:58:20.608Z,38.70
